sensor_id;sensor_type;location;lat;lon;timestamp;P1;durP1;ratioP1;P2;durP2;ratioP2
73154;SDS011;66341;52.418;7.382;2023-04-15T09:28:33;0.95;;;0.95;;
73154;SDS011;66341;52.418;7.382;2023-04-15T09:56:24;1.08;;;1.08;;
73154;SDS011;66341;52.418;7.382;2023-04-15T11:18:35;0.65;;;0.65;;
73154;SDS011;66341;52.418;7.382;2023-04-15T12:28:42;0.72;;;0.72;;
73154;SDS011;66341;52.418;7.382;2023-04-15T12:31:08;0.70;;;0.70;;
73154;SDS011;66341;52.418;7.382;2023-04-15T12:33:41;0.76;;;0.76;;
73154;SDS011;66341;52.418;7.382;2023-04-15T12:36:11;0.65;;;0.65;;
73154;SDS011;66341;52.418;7.382;2023-04-15T12:38:41;0.69;;;0.69;;
73154;SDS011;66341;52.418;7.382;2023-04-15T12:41:09;0.69;;;0.69;;
73154;SDS011;66341;52.418;7.382;2023-04-15T12:43:35;0.67;;;0.67;;
73154;SDS011;66341;52.418;7.382;2023-04-15T12:46:01;0.73;;;0.73;;
73154;SDS011;66341;52.418;7.382;2023-04-15T12:48:27;0.65;;;0.65;;
73154;SDS011;66341;52.418;7.382;2023-04-15T12:50:52;0.64;;;0.64;;
73154;SDS011;66341;52.418;7.382;2023-04-15T17:11:01;0.56;;;0.56;;
73154;SDS011;66341;52.418;7.382;2023-04-15T17:13:27;0.59;;;0.59;;
73154;SDS011;66341;52.418;7.382;2023-04-15T17:15:52;0.54;;;0.54;;
73154;SDS011;66341;52.418;7.382;2023-04-15T17:18:18;0.51;;;0.51;;
73154;SDS011;66341;52.418;7.382;2023-04-15T17:20:43;0.63;;;0.63;;
73154;SDS011;66341;52.418;7.382;2023-04-15T17:23:09;0.58;;;0.58;;
73154;SDS011;66341;52.418;7.382;2023-04-15T17:25:34;0.56;;;0.56;;
73154;SDS011;66341;52.418;7.382;2023-04-15T17:28:00;0.57;;;0.57;;
73154;SDS011;66341;52.418;7.382;2023-04-15T17:30:25;0.48;;;0.48;;
73154;SDS011;66341;52.418;7.382;2023-04-15T17:32:51;0.57;;;0.57;;
73154;SDS011;66341;52.418;7.382;2023-04-15T17:35:16;0.58;;;0.58;;
73154;SDS011;66341;52.418;7.382;2023-04-15T17:37:42;0.46;;;0.46;;
73154;SDS011;66341;52.418;7.382;2023-04-15T17:40:08;0.58;;;0.58;;
73154;SDS011;66341;52.418;7.382;2023-04-15T17:42:34;0.71;;;0.71;;
73154;SDS011;66341;52.418;7.382;2023-04-15T17:44:59;0.66;;;0.66;;
73154;SDS011;66341;52.418;7.382;2023-04-15T17:47:25;0.59;;;0.59;;
73154;SDS011;66341;52.418;7.382;2023-04-15T17:49:52;0.60;;;0.60;;
73154;SDS011;66341;52.418;7.382;2023-04-15T17:52:17;0.57;;;0.57;;
73154;SDS011;66341;52.418;7.382;2023-04-15T17:54:44;0.62;;;0.62;;
73154;SDS011;66341;52.418;7.382;2023-04-15T17:57:13;0.53;;;0.53;;
73154;SDS011;66341;52.418;7.382;2023-04-15T17:59:38;0.64;;;0.64;;
73154;SDS011;66341;52.418;7.382;2023-04-15T18:02:09;0.62;;;0.62;;
73154;SDS011;66341;52.418;7.382;2023-04-15T18:04:35;0.66;;;0.66;;
73154;SDS011;66341;52.418;7.382;2023-04-15T18:07:01;0.73;;;0.73;;
73154;SDS011;66341;52.418;7.382;2023-04-15T18:09:30;0.73;;;0.73;;
73154;SDS011;66341;52.418;7.382;2023-04-15T18:11:56;0.71;;;0.71;;
73154;SDS011;66341;52.418;7.382;2023-04-15T18:14:22;0.66;;;0.66;;
73154;SDS011;66341;52.418;7.382;2023-04-15T18:16:48;0.75;;;0.75;;
73154;SDS011;66341;52.418;7.382;2023-04-15T18:19:14;0.72;;;0.72;;
73154;SDS011;66341;52.418;7.382;2023-04-15T18:21:40;0.65;;;0.65;;
73154;SDS011;66341;52.418;7.382;2023-04-15T18:24:08;0.73;;;0.73;;
73154;SDS011;66341;52.418;7.382;2023-04-15T18:26:34;0.75;;;0.75;;
73154;SDS011;66341;52.418;7.382;2023-04-15T18:29:00;0.80;;;0.80;;
73154;SDS011;66341;52.418;7.382;2023-04-15T18:31:29;0.76;;;0.76;;
73154;SDS011;66341;52.418;7.382;2023-04-15T18:34:02;0.76;;;0.76;;
73154;SDS011;66341;52.418;7.382;2023-04-15T18:36:44;0.81;;;0.81;;
73154;SDS011;66341;52.418;7.382;2023-04-15T18:39:19;0.69;;;0.69;;
73154;SDS011;66341;52.418;7.382;2023-04-15T18:41:48;0.75;;;0.75;;
73154;SDS011;66341;52.418;7.382;2023-04-15T18:44:16;0.72;;;0.72;;
73154;SDS011;66341;52.418;7.382;2023-04-15T18:46:42;0.77;;;0.77;;
73154;SDS011;66341;52.418;7.382;2023-04-15T18:49:11;0.76;;;0.76;;
73154;SDS011;66341;52.418;7.382;2023-04-15T18:51:40;0.94;;;0.94;;
73154;SDS011;66341;52.418;7.382;2023-04-15T18:54:10;0.73;;;0.73;;
73154;SDS011;66341;52.418;7.382;2023-04-15T18:56:37;0.78;;;0.78;;
73154;SDS011;66341;52.418;7.382;2023-04-15T18:59:03;0.85;;;0.85;;
73154;SDS011;66341;52.418;7.382;2023-04-15T19:01:31;0.75;;;0.75;;
73154;SDS011;66341;52.418;7.382;2023-04-15T19:03:56;0.97;;;0.97;;
73154;SDS011;66341;52.418;7.382;2023-04-15T19:06:22;0.90;;;0.90;;
73154;SDS011;66341;52.418;7.382;2023-04-15T19:08:47;0.95;;;0.95;;
73154;SDS011;66341;52.418;7.382;2023-04-15T19:11:13;0.87;;;0.86;;
73154;SDS011;66341;52.418;7.382;2023-04-15T19:13:38;0.87;;;0.87;;
73154;SDS011;66341;52.418;7.382;2023-04-15T19:16:07;0.97;;;0.97;;
73154;SDS011;66341;52.418;7.382;2023-04-15T19:18:32;0.78;;;0.78;;
73154;SDS011;66341;52.418;7.382;2023-04-15T19:20:57;0.97;;;0.97;;
73154;SDS011;66341;52.418;7.382;2023-04-15T19:23:32;1.03;;;1.03;;
73154;SDS011;66341;52.418;7.382;2023-04-15T19:25:58;0.99;;;0.99;;
73154;SDS011;66341;52.418;7.382;2023-04-15T19:28:23;0.88;;;0.88;;
73154;SDS011;66341;52.418;7.382;2023-04-15T19:30:52;0.84;;;0.84;;
73154;SDS011;66341;52.418;7.382;2023-04-15T19:33:18;0.93;;;0.93;;
73154;SDS011;66341;52.418;7.382;2023-04-15T19:35:43;0.94;;;0.94;;
73154;SDS011;66341;52.418;7.382;2023-04-15T19:38:11;0.86;;;0.86;;
73154;SDS011;66341;52.418;7.382;2023-04-15T19:40:42;0.97;;;0.97;;
73154;SDS011;66341;52.418;7.382;2023-04-15T19:43:13;1.03;;;1.03;;
73154;SDS011;66341;52.418;7.382;2023-04-15T19:45:42;1.07;;;1.07;;
73154;SDS011;66341;52.418;7.382;2023-04-15T19:48:09;0.88;;;0.88;;
73154;SDS011;66341;52.418;7.382;2023-04-15T19:50:35;1.07;;;1.07;;
73154;SDS011;66341;52.418;7.382;2023-04-15T19:53:07;1.02;;;1.02;;
73154;SDS011;66341;52.418;7.382;2023-04-15T19:55:33;0.88;;;0.88;;
73154;SDS011;66341;52.418;7.382;2023-04-15T19:58:04;0.97;;;0.97;;
73154;SDS011;66341;52.418;7.382;2023-04-15T20:00:41;1.07;;;1.07;;
73154;SDS011;66341;52.418;7.382;2023-04-15T20:03:07;1.08;;;1.08;;
73154;SDS011;66341;52.418;7.382;2023-04-15T20:05:35;0.97;;;0.97;;
73154;SDS011;66341;52.418;7.382;2023-04-15T20:08:10;0.86;;;0.86;;
73154;SDS011;66341;52.418;7.382;2023-04-15T20:10:36;1.05;;;1.05;;
73154;SDS011;66341;52.418;7.382;2023-04-15T20:13:05;0.94;;;0.94;;
73154;SDS011;66341;52.418;7.382;2023-04-15T20:15:31;1.05;;;1.05;;
73154;SDS011;66341;52.418;7.382;2023-04-15T20:17:56;0.94;;;0.94;;
73154;SDS011;66341;52.418;7.382;2023-04-15T20:20:22;1.07;;;1.07;;
73154;SDS011;66341;52.418;7.382;2023-04-15T20:22:48;1.07;;;1.07;;
73154;SDS011;66341;52.418;7.382;2023-04-15T20:25:19;1.03;;;1.03;;
73154;SDS011;66341;52.418;7.382;2023-04-15T20:27:44;1.05;;;1.05;;
73154;SDS011;66341;52.418;7.382;2023-04-15T20:30:10;0.98;;;0.98;;
73154;SDS011;66341;52.418;7.382;2023-04-15T20:32:35;1.00;;;1.00;;
73154;SDS011;66341;52.418;7.382;2023-04-15T20:35:03;0.99;;;0.99;;
73154;SDS011;66341;52.418;7.382;2023-04-15T20:37:29;1.04;;;1.04;;
73154;SDS011;66341;52.418;7.382;2023-04-15T20:39:57;1.06;;;1.06;;
73154;SDS011;66341;52.418;7.382;2023-04-15T20:42:24;0.96;;;0.96;;
73154;SDS011;66341;52.418;7.382;2023-04-15T20:44:49;1.07;;;1.07;;
73154;SDS011;66341;52.418;7.382;2023-04-15T20:47:15;1.06;;;1.06;;
73154;SDS011;66341;52.418;7.382;2023-04-15T20:49:40;0.98;;;0.98;;
73154;SDS011;66341;52.418;7.382;2023-04-15T20:52:06;1.03;;;1.03;;
73154;SDS011;66341;52.418;7.382;2023-04-15T20:54:32;1.10;;;1.10;;
73154;SDS011;66341;52.418;7.382;2023-04-15T20:56:58;1.20;;;1.20;;
73154;SDS011;66341;52.418;7.382;2023-04-15T20:59:25;1.05;;;1.05;;
73154;SDS011;66341;52.418;7.382;2023-04-15T21:01:51;1.09;;;1.09;;
73154;SDS011;66341;52.418;7.382;2023-04-15T21:04:17;1.26;;;1.26;;
73154;SDS011;66341;52.418;7.382;2023-04-15T21:06:43;1.15;;;1.15;;
73154;SDS011;66341;52.418;7.382;2023-04-15T21:09:09;0.96;;;0.96;;
73154;SDS011;66341;52.418;7.382;2023-04-15T21:11:34;1.00;;;1.00;;
73154;SDS011;66341;52.418;7.382;2023-04-15T21:14:00;1.11;;;1.11;;
73154;SDS011;66341;52.418;7.382;2023-04-15T21:16:25;1.12;;;1.12;;
73154;SDS011;66341;52.418;7.382;2023-04-15T21:18:51;1.05;;;1.05;;
73154;SDS011;66341;52.418;7.382;2023-04-15T21:21:16;1.14;;;1.14;;
73154;SDS011;66341;52.418;7.382;2023-04-15T21:23:42;1.09;;;1.09;;
73154;SDS011;66341;52.418;7.382;2023-04-15T21:26:07;1.19;;;1.19;;
73154;SDS011;66341;52.418;7.382;2023-04-15T21:28:33;1.35;;;1.35;;
73154;SDS011;66341;52.418;7.382;2023-04-15T21:30:59;1.11;;;1.11;;
73154;SDS011;66341;52.418;7.382;2023-04-15T21:33:25;1.16;;;1.16;;
73154;SDS011;66341;52.418;7.382;2023-04-15T21:35:51;1.32;;;1.32;;
73154;SDS011;66341;52.418;7.382;2023-04-15T21:38:21;1.26;;;1.26;;
73154;SDS011;66341;52.418;7.382;2023-04-15T21:40:48;1.26;;;1.26;;
73154;SDS011;66341;52.418;7.382;2023-04-15T21:43:14;1.44;;;1.44;;
73154;SDS011;66341;52.418;7.382;2023-04-15T21:45:40;1.32;;;1.32;;
73154;SDS011;66341;52.418;7.382;2023-04-15T21:48:08;1.22;;;1.22;;
73154;SDS011;66341;52.418;7.382;2023-04-15T21:50:41;1.25;;;1.25;;
73154;SDS011;66341;52.418;7.382;2023-04-15T21:53:11;1.41;;;1.41;;
73154;SDS011;66341;52.418;7.382;2023-04-15T21:55:37;1.26;;;1.26;;
73154;SDS011;66341;52.418;7.382;2023-04-15T21:58:05;1.55;;;1.55;;
73154;SDS011;66341;52.418;7.382;2023-04-15T22:00:31;1.47;;;1.47;;
73154;SDS011;66341;52.418;7.382;2023-04-15T22:02:59;1.81;;;1.81;;
73154;SDS011;66341;52.418;7.382;2023-04-15T22:05:25;1.78;;;1.78;;
73154;SDS011;66341;52.418;7.382;2023-04-15T22:07:51;2.11;;;2.11;;
73154;SDS011;66341;52.418;7.382;2023-04-15T22:10:17;1.83;;;1.83;;
73154;SDS011;66341;52.418;7.382;2023-04-15T22:12:44;2.24;;;2.24;;
73154;SDS011;66341;52.418;7.382;2023-04-15T22:15:09;2.19;;;2.19;;
73154;SDS011;66341;52.418;7.382;2023-04-15T22:17:35;2.32;;;2.32;;
73154;SDS011;66341;52.418;7.382;2023-04-15T22:20:01;1.97;;;1.97;;
73154;SDS011;66341;52.418;7.382;2023-04-15T22:22:27;1.93;;;1.93;;
73154;SDS011;66341;52.418;7.382;2023-04-15T22:24:57;2.37;;;2.37;;
73154;SDS011;66341;52.418;7.382;2023-04-15T22:27:23;2.47;;;2.47;;
73154;SDS011;66341;52.418;7.382;2023-04-15T22:29:51;2.34;;;2.34;;
73154;SDS011;66341;52.418;7.382;2023-04-15T22:32:17;2.60;;;2.60;;
73154;SDS011;66341;52.418;7.382;2023-04-15T22:34:46;2.36;;;2.36;;
73154;SDS011;66341;52.418;7.382;2023-04-15T22:37:11;2.62;;;2.62;;
73154;SDS011;66341;52.418;7.382;2023-04-15T22:39:40;2.59;;;2.59;;
73154;SDS011;66341;52.418;7.382;2023-04-15T22:42:06;2.62;;;2.62;;
73154;SDS011;66341;52.418;7.382;2023-04-15T22:44:32;2.87;;;2.87;;
73154;SDS011;66341;52.418;7.382;2023-04-15T22:46:58;2.87;;;2.87;;
73154;SDS011;66341;52.418;7.382;2023-04-15T22:49:24;2.83;;;2.83;;
73154;SDS011;66341;52.418;7.382;2023-04-15T22:51:50;2.99;;;2.99;;
73154;SDS011;66341;52.418;7.382;2023-04-15T22:54:16;3.08;;;3.08;;
73154;SDS011;66341;52.418;7.382;2023-04-15T22:56:42;3.27;;;3.27;;
73154;SDS011;66341;52.418;7.382;2023-04-15T22:59:11;3.24;;;3.24;;
73154;SDS011;66341;52.418;7.382;2023-04-15T23:01:40;3.26;;;3.26;;
73154;SDS011;66341;52.418;7.382;2023-04-15T23:04:09;3.44;;;3.44;;
73154;SDS011;66341;52.418;7.382;2023-04-15T23:06:38;3.30;;;3.30;;
73154;SDS011;66341;52.418;7.382;2023-04-15T23:09:04;3.22;;;3.22;;
73154;SDS011;66341;52.418;7.382;2023-04-15T23:11:39;3.31;;;3.31;;
73154;SDS011;66341;52.418;7.382;2023-04-15T23:14:08;3.34;;;3.34;;
73154;SDS011;66341;52.418;7.382;2023-04-15T23:16:37;3.55;;;3.55;;
73154;SDS011;66341;52.418;7.382;2023-04-15T23:19:08;3.63;;;3.63;;
73154;SDS011;66341;52.418;7.382;2023-04-15T23:21:37;3.75;;;3.75;;
73154;SDS011;66341;52.418;7.382;2023-04-15T23:24:06;3.66;;;3.66;;
73154;SDS011;66341;52.418;7.382;2023-04-15T23:26:35;3.83;;;3.83;;
73154;SDS011;66341;52.418;7.382;2023-04-15T23:29:01;3.49;;;3.49;;
73154;SDS011;66341;52.418;7.382;2023-04-15T23:31:27;3.43;;;3.43;;
73154;SDS011;66341;52.418;7.382;2023-04-15T23:33:53;3.58;;;3.58;;
73154;SDS011;66341;52.418;7.382;2023-04-15T23:36:21;3.67;;;3.67;;
73154;SDS011;66341;52.418;7.382;2023-04-15T23:38:51;3.81;;;3.81;;
73154;SDS011;66341;52.418;7.382;2023-04-15T23:41:20;4.00;;;4.00;;
73154;SDS011;66341;52.418;7.382;2023-04-15T23:43:47;3.96;;;3.96;;
73154;SDS011;66341;52.418;7.382;2023-04-15T23:46:14;3.79;;;3.79;;
73154;SDS011;66341;52.418;7.382;2023-04-15T23:48:49;4.00;;;4.00;;
73154;SDS011;66341;52.418;7.382;2023-04-15T23:51:18;4.00;;;4.00;;
73154;SDS011;66341;52.418;7.382;2023-04-15T23:53:44;4.10;;;4.10;;
73154;SDS011;66341;52.418;7.382;2023-04-15T23:56:13;3.93;;;3.93;;
73154;SDS011;66341;52.418;7.382;2023-04-15T23:58:39;4.28;;;4.28;;
